Adrian, Texas
Current Conditions -  °F | °C
As of 1:35 AM on Sunday 26 Oct 2014 (Local Time) from KHRX Reporting Station
Clear Clear  
Wind Chill: 55°   Ceiling: Unl
Heat Index: 55°   Visibility: 10mi
Dew Point: 49°   Wind: 7mph
Humidity: 80%   Direction: 150°SSE
Pressure: 30.07"   Gusts: NA
Location:  35.27°N, 102.67°W
Report Text: KHRX 260635Z AUTO 15006KT 10SM CLR 13/10 A3007 RMK AO2 T01300096
Loading
Personal Weather Stations






























Interactive Weather Map
Tropical Storm Tracking
New forecast layout! Learn more

10-Day Weather Forecast

Advertisements
Track Severe Weather on mobile